Time;durP1;ratioP1;P1;durP2;ratioP2;P2;SDS_P1;SDS_P2;PMS_P1;PMS_P2;Temp;Humidity;BMP_temperature;BMP_pressure;BME280_temperature;BME280_humidity;BME280_pressure;Samples;Min_cycle;Max_cycle;Signal;HPM_P1;HPM_P2
2021/09/04 00:07:41;;;;;;;7.78;6.03;;;;;;;13.99;100.00;100613.52;1796239;79;22804;-83
2021/09/04 00:10:10;;;;;;;11.25;6.17;;;;;;;13.94;100.00;100618.34;1737407;81;21017;-85
2021/09/04 00:12:39;;;;;;;10.70;6.33;;;;;;;13.90;100.00;100624.34;1723306;81;21167;-79
2021/09/04 00:15:07;;;;;;;8.38;6.10;;;;;;;13.91;100.00;100622.54;1694309;83;20997;-82
2021/09/04 00:17:34;;;;;;;10.95;6.55;;;;;;;13.88;100.00;100623.64;1723181;83;20996;-86
2021/09/04 00:20:01;;;;;;;7.53;6.25;;;;;;;13.84;100.00;100623.09;1694549;83;21553;-89
2021/09/04 00:22:29;;;;;;;10.98;6.40;;;;;;;13.82;100.00;100627.63;1723257;83;21032;-82
2021/09/04 00:24:56;;;;;;;15.70;6.70;;;;;;;13.79;100.00;100623.99;1694371;83;21020;-81
2021/09/04 00:27:23;;;;;;;8.90;6.35;;;;;;;13.75;100.00;100625.21;1694307;83;21016;-88
2021/09/04 00:29:50;;;;;;;9.93;6.65;;;;;;;13.74;100.00;100630.09;1694325;83;20969;-84
2021/09/04 00:32:17;;;;;;;11.12;6.33;;;;;;;13.73;100.00;100625.36;1694153;83;21001;-84
2021/09/04 00:34:44;;;;;;;9.05;6.58;;;;;;;13.70;100.00;100619.08;1694410;83;21024;-87
2021/09/04 00:37:11;;;;;;;9.93;7.22;;;;;;;13.71;100.00;100618.61;1694651;83;21039;-84
2021/09/04 00:39:38;;;;;;;12.47;7.75;;;;;;;13.70;100.00;100611.72;1694369;83;21108;-86
2021/09/04 00:42:06;;;;;;;8.98;6.92;;;;;;;13.68;100.00;100614.95;1723369;83;21460;-84
2021/09/04 00:44:33;;;;;;;11.68;7.80;;;;;;;13.67;100.00;100618.52;1694551;83;21002;-84
2021/09/04 00:47:06;;;;;;;12.18;7.53;;;;;;;13.66;100.00;100614.28;1694320;83;21088;-82
2021/09/04 00:49:36;;;;;;;13.85;7.80;;;;;;;13.64;100.00;100609.16;1694345;81;21133;-85
2021/09/04 00:52:05;;;;;;;12.93;7.80;;;;;;;13.63;100.00;100604.88;1716682;83;20934;-92
2021/09/04 00:54:33;;;;;;;12.00;8.00;;;;;;;13.62;100.00;100607.15;1694408;83;21001;-86
2021/09/04 00:57:01;;;;;;;11.85;7.92;;;;;;;13.59;100.00;100606.13;1694726;83;21042;-80
2021/09/04 00:59:29;;;;;;;11.03;6.83;;;;;;;13.59;100.00;100610.52;1723119;82;21052;-83
2021/09/04 01:01:57;;;;;;;12.13;7.95;;;;;;;13.57;100.00;100608.05;1694198;83;21316;-80
2021/09/04 01:04:24;;;;;;;10.53;7.12;;;;;;;13.55;100.00;100606.04;1694202;81;21082;-86
2021/09/04 01:06:56;;;;;;;11.85;6.30;;;;;;;13.52;100.00;100608.95;1714579;82;21017;-88
2021/09/04 01:09:23;;;;;;;9.18;6.17;;;;;;;13.47;100.00;100601.50;1743480;80;21019;-89
2021/09/04 01:11:52;;;;;;;9.38;5.80;;;;;;;13.43;100.00;100598.79;1707965;83;21034;-83
2021/09/04 01:14:20;;;;;;;9.63;6.78;;;;;;;13.41;100.00;100591.58;1743523;82;21158;-88
2021/09/04 01:16:47;;;;;;;9.68;6.22;;;;;;;13.38;100.00;100587.88;1707699;82;21018;-82
2021/09/04 01:19:14;;;;;;;9.25;6.65;;;;;;;13.34;100.00;100588.63;1732358;82;21064;-81
2021/09/04 01:21:41;;;;;;;8.83;6.28;;;;;;;13.32;100.00;100589.73;1685796;84;21026;-85
2021/09/04 01:24:08;;;;;;;12.53;6.37;;;;;;;13.32;100.00;100591.04;1732206;82;21117;-80
2021/09/04 01:26:36;;;;;;;9.50;6.47;;;;;;;13.31;100.00;100594.61;1707276;83;21172;-86
2021/09/04 01:29:04;;;;;;;14.53;6.30;;;;;;;13.28;100.00;100594.88;1732245;82;20999;-85
2021/09/04 01:31:31;;;;;;;7.50;5.83;;;;;;;13.23;100.00;100585.65;1685404;83;21018;-84
2021/09/04 01:33:58;;;;;;;10.85;6.60;;;;;;;13.19;100.00;100584.25;1732345;82;21031;-86
2021/09/04 01:36:36;;;;;;;13.58;5.70;;;;;;;13.13;100.00;100574.33;1685499;83;20990;-83
2021/09/04 01:39:06;;;;;;;8.45;5.28;;;;;;;13.08;100.00;100581.75;1732270;81;21121;-82
2021/09/04 01:41:34;;;;;;;12.95;5.47;;;;;;;13.02;100.00;100574.45;1685251;84;21011;-85
2021/09/04 01:44:02;;;;;;;7.37;5.55;;;;;;;12.99;100.00;100574.70;1732583;82;21078;-85
2021/09/04 01:46:34;;;;;;;8.40;5.67;;;;;;;12.96;100.00;100572.34;1685366;84;21034;-83
2021/09/04 01:49:03;;;;;;;7.57;5.73;;;;;;;12.93;100.00;100567.75;1732692;82;22025;-81
2021/09/04 01:51:30;;;;;;;8.65;5.58;;;;;;;12.91;100.00;100572.27;1685709;84;21051;-85
2021/09/04 01:53:57;;;;;;;8.25;6.05;;;;;;;12.91;100.00;100575.34;1732560;82;21727;-83
2021/09/04 01:56:24;;;;;;;10.60;6.62;;;;;;;12.89;100.00;100578.59;1685498;82;21533;-84
2021/09/04 01:58:51;;;;;;;9.83;6.33;;;;;;;12.89;100.00;100574.67;1732539;82;20979;-85
2021/09/04 02:01:19;;;;;;;9.95;6.20;;;;;;;12.87;100.00;100569.55;1685479;84;21029;-90
2021/09/04 02:03:45;;;;;;;9.18;5.87;;;;;;;12.89;100.00;100562.42;1732650;82;21091;-85
2021/09/04 02:06:13;;;;;;;9.50;6.17;;;;;;;12.87;100.00;100560.41;1685435;83;21082;-82
2021/09/04 02:08:41;;;;;;;10.50;5.97;;;;;;;12.84;100.00;100560.69;1742910;81;21081;-90
2021/09/04 02:11:08;;;;;;;16.10;6.00;;;;;;;12.83;100.00;100558.19;1685529;83;21050;-85
2021/09/04 02:13:35;;;;;;;8.33;6.33;;;;;;;12.82;100.00;100556.06;1734863;81;21003;-84
2021/09/04 02:16:03;;;;;;;9.65;5.67;;;;;;;12.81;100.00;100555.72;1713543;82;21066;-88
2021/09/04 02:18:33;;;;;;;14.25;6.35;;;;;;;12.80;100.00;100555.36;1731869;82;21058;-82
2021/09/04 02:21:01;;;;;;;13.48;6.50;;;;;;;12.81;100.00;100562.73;1713847;82;21093;-84
2021/09/04 02:23:30;;;;;;;13.48;7.58;;;;;;;12.80;100.00;100555.36;1715485;81;21044;-81
2021/09/04 02:25:57;;;;;;;14.15;7.67;;;;;;;12.78;100.00;100554.66;1746548;80;21005;-82
2021/09/04 02:28:24;;;;;;;15.93;8.38;;;;;;;12.76;100.00;100554.80;1715735;82;21121;-84
2021/09/04 02:30:51;;;;;;;18.60;9.30;;;;;;;12.73;100.00;100551.63;1715334;80;21532;-84
2021/09/04 02:33:19;;;;;;;20.45;10.28;;;;;;;12.70;100.00;100547.98;1692406;82;21025;-83
2021/09/04 02:35:46;;;;;;;21.60;10.25;;;;;;;12.69;100.00;100546.33;1675547;84;21167;-81
2021/09/04 02:38:13;;;;;;;18.80;10.48;;;;;;;12.66;100.00;100542.66;1675371;84;21120;-83
2021/09/04 02:40:42;;;;;;;18.35;9.48;;;;;;;12.62;100.00;100540.30;1675541;83;21092;-84
2021/09/04 02:43:09;;;;;;;16.60;8.90;;;;;;;12.57;100.00;100543.78;1674268;84;21033;-83
2021/09/04 02:45:39;;;;;;;11.30;7.40;;;;;;;12.50;100.00;100542.66;1687503;83;20997;-85
2021/09/04 02:48:07;;;;;;;12.05;7.28;;;;;;;12.44;100.00;100541.87;1673874;82;21090;-83
2021/09/04 02:50:36;;;;;;;12.82;6.62;;;;;;;12.37;100.00;100539.44;1730053;82;21501;-84
2021/09/04 02:53:06;;;;;;;11.85;6.47;;;;;;;12.28;100.00;100530.57;1657960;84;21850;-87
2021/09/04 02:55:32;;;;;;;19.23;6.25;;;;;;;12.17;100.00;100531.47;1700086;83;20995;-81
2021/09/04 02:57:58;;;;;;;9.75;6.35;;;;;;;12.02;100.00;100524.42;1658084;85;21034;-82
2021/09/04 03:00:26;;;;;;;12.23;6.20;;;;;;;11.87;100.00;100526.50;1703759;83;21003;-86
2021/09/04 03:02:54;;;;;;;8.95;6.28;;;;;;;11.75;100.00;100524.88;1678874;84;21648;-84
2021/09/04 03:05:24;;;;;;;8.70;4.85;;;;;;;11.63;100.00;100524.95;1698833;82;21152;-89
2021/09/04 03:07:51;;;;;;;9.85;5.30;;;;;;;11.51;100.00;100522.86;1732375;82;21113;-86
2021/09/04 03:10:19;;;;;;;10.68;5.83;;;;;;;11.44;100.00;100528.21;1731259;80;21023;-86
2021/09/04 03:12:47;;;;;;;11.53;5.35;;;;;;;11.38;100.00;100529.17;1728435;81;21039;-83
2021/09/04 03:15:14;;;;;;;9.13;5.05;;;;;;;11.31;100.00;100531.42;1728520;80;21767;-89
2021/09/04 03:17:43;;;;;;;14.55;5.87;;;;;;;11.28;100.00;100539.02;1750695;80;21955;-82
2021/09/04 03:20:11;;;;;;;5.50;4.65;;;;;;;11.24;100.00;100543.30;1730469;81;21013;-84
2021/09/04 03:22:40;;;;;;;12.90;5.40;;;;;;;11.25;100.00;100544.50;1754916;80;22253;-85
2021/09/04 03:25:09;;;;;;;10.75;6.30;;;;;;;11.22;100.00;100548.64;1746458;80;21666;-84
2021/09/04 03:27:39;;;;;;;17.05;8.85;;;;;;;11.37;100.00;100558.34;1727736;81;21548;-87
2021/09/04 03:30:07;;;;;;;13.68;6.83;;;;;;;11.62;100.00;100572.84;1727164;80;21060;-87
2021/09/04 03:32:38;;;;;;;25.68;8.48;;;;;;;11.84;100.00;100571.09;1680664;82;21055;-84
2021/09/04 03:35:11;;;;;;;6.28;5.37;;;;;;;11.99;100.00;100572.48;1674923;82;21046;-85
2021/09/04 03:37:38;;;;;;;7.72;5.30;;;;;;;12.08;100.00;100572.69;1675118;82;21086;-86
2021/09/04 03:40:08;;;;;;;10.23;5.33;;;;;;;12.04;100.00;100573.91;1703901;83;21075;-85
2021/09/04 03:42:35;;;;;;;7.83;4.83;;;;;;;11.93;100.00;100578.18;1678458;84;21036;-88
2021/09/04 03:45:02;;;;;;;7.08;4.95;;;;;;;11.83;100.00;100575.95;1678526;82;21129;-87
2021/09/04 03:47:30;;;;;;;7.00;5.20;;;;;;;11.75;100.00;100583.12;1677729;83;21145;-87
2021/09/04 03:49:58;;;;;;;8.28;4.50;;;;;;;11.68;100.00;100589.78;1677782;83;21196;-84
2021/09/04 03:52:26;;;;;;;7.08;5.12;;;;;;;11.62;100.00;100590.25;1678164;82;21576;-83
2021/09/04 03:54:54;;;;;;;11.93;5.65;;;;;;;11.59;100.00;100593.94;1708240;82;21768;-86
2021/09/04 03:57:23;;;;;;;8.95;4.87;;;;;;;11.59;100.00;100591.81;1701009;83;21173;-83
2021/09/04 03:59:51;;;;;;;6.70;5.12;;;;;;;11.60;100.00;100598.20;1678290;83;21587;-82
2021/09/04 04:02:18;;;;;;;15.68;6.05;;;;;;;11.63;100.00;100600.58;1678091;84;21129;-86
2021/09/04 04:04:45;;;;;;;12.23;6.20;;;;;;;11.71;100.00;100601.74;1678786;83;21049;-84
2021/09/04 04:07:14;;;;;;;13.22;7.25;;;;;;;11.80;100.00;100604.44;1677814;83;21061;-86
2021/09/04 04:09:44;;;;;;;8.73;6.25;;;;;;;11.93;100.00;100598.23;1710007;83;21937;-83
2021/09/04 04:12:12;;;;;;;13.43;6.50;;;;;;;12.07;100.00;100603.64;1745010;80;21023;-86
2021/09/04 04:14:40;;;;;;;7.65;5.45;;;;;;;12.18;100.00;100599.69;1727786;81;21042;-85
2021/09/04 04:17:08;;;;;;;10.35;6.37;;;;;;;12.30;100.00;100604.38;1731844;82;21046;-85
2021/09/04 04:19:36;;;;;;;9.15;6.03;;;;;;;12.41;100.00;100600.88;1729731;82;21073;-85
2021/09/04 04:22:04;;;;;;;7.45;5.15;;;;;;;12.52;100.00;100595.59;1731693;81;21052;-81
2021/09/04 04:24:32;;;;;;;10.38;5.70;;;;;;;12.62;100.00;100593.84;1730922;80;21097;-83
2021/09/04 04:27:01;;;;;;;8.88;5.53;;;;;;;12.74;100.00;100593.78;1729964;80;21032;-87
2021/09/04 04:29:28;;;;;;;7.33;5.50;;;;;;;12.85;100.00;100587.17;1724397;80;21921;-86
2021/09/04 04:31:56;;;;;;;6.70;4.95;;;;;;;12.98;100.00;100595.26;1730631;81;21154;-83
2021/09/04 04:34:24;;;;;;;7.17;5.15;;;;;;;13.10;100.00;100587.19;1730453;82;21046;-84
2021/09/04 04:36:52;;;;;;;10.23;6.10;;;;;;;13.24;100.00;100591.69;1730266;80;21059;-84
2021/09/04 04:39:19;;;;;;;10.63;6.50;;;;;;;13.35;100.00;100599.45;1709828;82;21014;-82
2021/09/04 04:41:47;;;;;;;13.03;9.45;;;;;;;13.45;100.00;100603.91;1723754;80;21704;-87
2021/09/04 04:44:16;;;;;;;33.10;12.40;;;;;;;13.51;100.00;100600.25;1732282;81;21093;-85
2021/09/04 04:46:44;;;;;;;57.78;14.78;;;;;;;13.59;100.00;100594.82;1736166;80;21085;-83
2021/09/04 04:49:12;;;;;;;52.60;15.38;;;;;;;13.66;100.00;100596.78;1726533;82;21004;-84
2021/09/04 04:51:40;;;;;;;30.05;14.90;;;;;;;13.73;100.00;100590.03;1725655;82;21004;-83
2021/09/04 04:54:07;;;;;;;21.50;13.40;;;;;;;13.80;100.00;100598.17;1735665;80;20988;-88
2021/09/04 04:56:34;;;;;;;17.77;12.73;;;;;;;13.86;100.00;100602.04;1723681;82;21179;-84
2021/09/04 04:59:01;;;;;;;17.50;11.68;;;;;;;13.90;100.00;100606.52;1731174;81;21078;-87
2021/09/04 05:01:28;;;;;;;16.25;11.30;;;;;;;13.94;100.00;100593.48;1732730;82;21141;-87
2021/09/04 05:03:56;;;;;;;12.63;9.95;;;;;;;13.98;100.00;100602.73;1702223;83;21478;-88
2021/09/04 05:06:23;;;;;;;14.68;9.78;;;;;;;14.04;100.00;100601.67;1719232;80;21051;-84
2021/09/04 05:08:50;;;;;;;12.47;9.90;;;;;;;14.13;100.00;100601.81;1718181;83;21144;-86
2021/09/04 05:11:18;;;;;;;13.60;9.70;;;;;;;14.23;100.00;100601.80;1673410;83;20971;-86
2021/09/04 05:13:46;;;;;;;13.65;9.73;;;;;;;14.31;100.00;100601.92;1673463;84;21143;-89
2021/09/04 05:16:15;;;;;;;14.07;9.58;;;;;;;14.39;100.00;100605.98;1677270;84;21019;-85
2021/09/04 05:18:42;;;;;;;18.25;10.40;;;;;;;14.47;100.00;100600.86;1677967;84;21030;-85
2021/09/04 05:21:10;;;;;;;12.98;10.25;;;;;;;14.53;100.00;100595.55;1677985;84;21457;-84
2021/09/04 05:23:36;;;;;;;14.73;10.15;;;;;;;14.55;100.00;100598.86;1702360;84;21011;-84
2021/09/04 05:26:04;;;;;;;15.00;9.95;;;;;;;14.59;100.00;100603.33;1700415;84;21118;-84
2021/09/04 05:28:32;;;;;;;16.70;11.65;;;;;;;14.63;100.00;100604.69;1665728;84;21119;-86
2021/09/04 05:31:00;;;;;;;18.15;12.15;;;;;;;14.64;100.00;100594.08;1678226;84;21004;-86
2021/09/04 05:33:28;;;;;;;14.47;11.97;;;;;;;14.66;100.00;100596.08;1702328;84;21174;-83
2021/09/04 05:35:55;;;;;;;17.10;12.78;;;;;;;14.68;100.00;100606.45;1702340;84;21019;-85
2021/09/04 05:38:22;;;;;;;18.52;13.10;;;;;;;14.68;100.00;100599.89;1667218;84;21140;-83
2021/09/04 05:40:49;;;;;;;20.37;13.25;;;;;;;14.70;100.00;100603.20;1702852;82;21021;-85
2021/09/04 05:43:16;;;;;;;20.40;13.35;;;;;;;14.74;100.00;100605.05;1693183;83;21112;-85
2021/09/04 05:45:44;;;;;;;19.48;14.33;;;;;;;14.76;100.00;100601.31;1719538;83;21021;-84
2021/09/04 05:48:11;;;;;;;20.32;14.33;;;;;;;14.79;100.00;100603.63;1688893;82;21239;-86
2021/09/04 05:50:38;;;;;;;20.95;14.65;;;;;;;14.81;100.00;100603.02;1693914;83;21084;-84
2021/09/04 05:53:05;;;;;;;19.55;13.55;;;;;;;14.85;100.00;100612.73;1717222;82;21058;-84
2021/09/04 05:55:32;;;;;;;21.23;15.28;;;;;;;14.87;100.00;100607.33;1693999;82;21116;-87
2021/09/04 05:57:59;;;;;;;19.00;14.15;;;;;;;14.89;100.00;100611.95;1693733;82;21092;-86
2021/09/04 06:00:26;;;;;;;19.37;14.18;;;;;;;14.89;100.00;100614.11;1694141;82;20990;-86
2021/09/04 06:02:53;;;;;;;19.75;15.00;;;;;;;14.91;100.00;100610.02;1720533;82;20951;-84
2021/09/04 06:05:20;;;;;;;22.40;15.38;;;;;;;14.94;100.00;100613.18;1694144;82;21002;-87
2021/09/04 06:07:49;;;;;;;20.12;14.25;;;;;;;15.01;100.00;100614.75;1690892;83;22090;-84
2021/09/04 06:10:17;;;;;;;19.37;13.78;;;;;;;15.05;100.00;100616.09;1683246;82;21166;-86
2021/09/04 06:12:44;;;;;;;18.95;14.50;;;;;;;15.11;100.00;100615.52;1686144;82;21042;-83
2021/09/04 06:15:11;;;;;;;19.27;13.93;;;;;;;15.19;100.00;100615.27;1720439;82;21093;-82
2021/09/04 06:17:39;;;;;;;18.07;14.05;;;;;;;15.25;100.00;100620.77;1720124;83;21053;-83
2021/09/04 06:20:09;;;;;;;20.10;13.85;;;;;;;15.32;100.00;100624.11;1679352;83;21092;-85
2021/09/04 06:22:36;;;;;;;18.60;12.50;;;;;;;15.41;100.00;100629.33;1694140;83;21229;-87
2021/09/04 06:25:05;;;;;;;15.48;12.13;;;;;;;15.46;100.00;100636.27;1693660;82;21523;-87
2021/09/04 06:27:32;;;;;;;19.55;13.45;;;;;;;15.48;100.00;100626.92;1694015;83;21010;-87
2021/09/04 06:29:59;;;;;;;19.48;13.20;;;;;;;15.49;100.00;100629.08;1693917;82;20994;-86
2021/09/04 06:32:27;;;;;;;19.87;13.35;;;;;;;15.52;100.00;100626.14;1694326;82;21045;-85
2021/09/04 06:34:54;;;;;;;19.07;13.10;;;;;;;15.56;100.00;100625.70;1693801;82;21163;-86
2021/09/04 06:37:22;;;;;;;16.42;12.63;;;;;;;15.65;100.00;100623.16;1693047;83;21016;-86
2021/09/04 06:39:50;;;;;;;16.45;12.45;;;;;;;15.74;100.00;100630.97;1693522;83;21098;-89
2021/09/04 06:42:20;;;;;;;15.48;12.23;;;;;;;15.78;100.00;100628.39;1693707;83;20975;-88
2021/09/04 06:44:47;;;;;;;16.85;12.07;;;;;;;15.82;100.00;100632.86;1692864;83;21108;-86
2021/09/04 06:47:14;;;;;;;17.67;11.63;;;;;;;15.88;100.00;100637.53;1682407;83;21085;-87
2021/09/04 06:49:41;;;;;;;16.55;11.25;;;;;;;15.97;100.00;100633.20;1693550;83;21524;-86
2021/09/04 06:52:08;;;;;;;14.93;11.43;;;;;;;16.08;100.00;100635.58;1691856;83;21587;-88
2021/09/04 06:54:35;;;;;;;15.20;10.88;;;;;;;16.19;100.00;100634.52;1685583;83;21033;-86
2021/09/04 06:57:04;;;;;;;16.60;10.60;;;;;;;16.32;100.00;100629.38;1666003;84;21026;-85
2021/09/04 06:59:31;;;;;;;13.50;10.35;;;;;;;16.40;100.00;100624.19;1702024;84;21142;-87
2021/09/04 07:01:58;;;;;;;13.98;10.40;;;;;;;16.54;100.00;100625.44;1702542;84;21570;-90
2021/09/04 07:04:25;;;;;;;15.23;9.95;;;;;;;16.71;100.00;100628.48;1702200;84;22176;-90
2021/09/04 07:06:52;;;;;;;11.25;9.05;;;;;;;16.91;100.00;100630.90;1653997;84;21554;-89
2021/09/04 07:09:20;;;;;;;12.82;8.90;;;;;;;17.12;100.00;100633.17;1671546;84;21094;-88
2021/09/04 07:11:48;;;;;;;13.48;9.60;;;;;;;17.29;100.00;100631.42;1678574;84;21138;-88
2021/09/04 07:14:16;;;;;;;12.82;8.55;;;;;;;17.47;100.00;100627.86;1661949;85;21036;-86
2021/09/04 07:16:43;;;;;;;9.10;7.40;;;;;;;17.68;100.00;100627.89;1663014;84;21607;-88
2021/09/04 07:19:11;;;;;;;8.35;6.85;;;;;;;17.85;100.00;100632.72;1681387;84;21071;-86
2021/09/04 07:21:40;;;;;;;7.20;6.20;;;;;;;18.00;100.00;100632.91;1678564;84;22269;-86
2021/09/04 07:24:07;;;;;;;9.38;6.20;;;;;;;18.11;100.00;100622.05;1713176;82;21906;-90
2021/09/04 07:26:37;;;;;;;9.35;6.70;;;;;;;18.16;100.00;100630.28;1731038;82;21508;-88
2021/09/04 07:29:05;;;;;;;10.18;6.58;;;;;;;18.17;100.00;100625.34;1731995;82;21073;-87
2021/09/04 07:31:32;;;;;;;7.97;6.03;;;;;;;18.15;100.00;100623.36;1731754;82;21615;-88
2021/09/04 07:33:59;;;;;;;7.78;6.00;;;;;;;18.15;100.00;100614.64;1685698;84;21042;-87
2021/09/04 07:36:28;;;;;;;8.13;6.40;;;;;;;18.17;100.00;100612.16;1740568;81;21028;-88
2021/09/04 07:38:55;;;;;;;8.90;6.00;;;;;;;18.22;100.00;100600.66;1685903;84;21081;-87
2021/09/04 07:41:22;;;;;;;7.17;6.08;;;;;;;18.23;100.00;100604.91;1732334;82;21078;-87
2021/09/04 07:43:52;;;;;;;7.85;6.05;;;;;;;18.23;100.00;100604.91;1686181;84;21007;-87
2021/09/04 07:46:20;;;;;;;7.97;6.27;;;;;;;18.24;100.00;100614.47;1737654;81;21041;-86
2021/09/04 07:48:47;;;;;;;8.78;6.60;;;;;;;18.25;100.00;100604.77;1728672;82;21140;-86
2021/09/04 07:51:14;;;;;;;7.45;6.53;;;;;;;18.20;100.00;100605.26;1685670;84;20943;-88
2021/09/04 07:53:41;;;;;;;10.75;6.95;;;;;;;18.21;100.00;100606.07;1732529;82;20971;-86
2021/09/04 07:56:09;;;;;;;9.75;7.05;;;;;;;18.32;100.00;100608.38;1695194;83;21065;-87
2021/09/04 07:58:37;;;;;;;8.70;6.53;;;;;;;18.38;100.00;100600.30;1699842;83;20963;-89
2021/09/04 08:01:04;;;;;;;11.33;6.92;;;;;;;18.38;100.00;100602.94;1657858;85;20959;-85
2021/09/04 08:03:32;;;;;;;9.65;6.67;;;;;;;18.41;100.00;100599.47;1702916;83;21054;-88
2021/09/04 08:05:59;;;;;;;9.08;6.37;;;;;;;18.50;100.00;100593.68;1678867;85;21041;-86
2021/09/04 08:08:26;;;;;;;9.10;7.33;;;;;;;18.59;100.00;100593.99;1660363;84;21010;-87
2021/09/04 08:10:55;;;;;;;11.80;6.90;;;;;;;18.68;100.00;100596.61;1666309;84;21000;-89
2021/09/04 08:13:24;;;;;;;7.10;6.22;;;;;;;18.74;100.00;100599.87;1666232;84;21595;-87
2021/09/04 08:15:52;;;;;;;9.25;6.90;;;;;;;18.84;100.00;100598.36;1665724;84;21480;-87
2021/09/04 08:18:21;;;;;;;11.50;6.53;;;;;;;18.96;100.00;100596.20;1691519;83;21530;-89
2021/09/04 08:20:48;;;;;;;8.70;6.62;;;;;;;18.99;100.00;100595.88;1666022;84;21002;-89
2021/09/04 08:23:15;;;;;;;10.32;6.95;;;;;;;19.02;100.00;100598.18;1666025;84;20990;-88
2021/09/04 08:25:42;;;;;;;9.78;6.47;;;;;;;19.06;100.00;100591.55;1691542;84;21149;-87
2021/09/04 08:28:10;;;;;;;9.40;7.45;;;;;;;19.15;100.00;100601.08;1665792;83;20938;-87
2021/09/04 08:30:38;;;;;;;9.83;6.83;;;;;;;19.23;100.00;100593.13;1691807;84;21096;-86
2021/09/04 08:33:05;;;;;;;11.83;6.87;;;;;;;19.30;100.00;100597.22;1666138;84;21045;-87
2021/09/04 08:35:32;;;;;;;8.55;6.75;;;;;;;19.23;100.00;100585.69;1642390;84;21045;-88
2021/09/04 08:38:04;;;;;;;11.55;6.83;;;;;;;19.17;100.00;100580.63;1691958;83;21209;-87
2021/09/04 08:40:28;;;;;;;8.45;6.67;;;;;;;19.21;100.00;100587.70;1661323;84;21024;-88
2021/09/04 08:42:57;;;;;;;9.85;7.05;;;;;;;19.33;100.00;100584.98;1691669;83;21029;-87
2021/09/04 08:45:24;;;;;;;8.85;7.08;;;;;;;19.48;100.00;100582.91;1661895;84;21054;-85
2021/09/04 08:47:51;;;;;;;9.40;6.70;;;;;;;19.60;100.00;100584.64;1665810;84;21017;-87
2021/09/04 08:50:20;;;;;;;11.15;6.55;;;;;;;19.62;100.00;100583.50;1691789;84;21224;-87
2021/09/04 08:52:47;;;;;;;9.58;6.37;;;;;;;19.53;100.00;100581.39;1665792;84;21049;-89
2021/09/04 08:55:14;;;;;;;9.35;6.47;;;;;;;19.45;100.00;100582.77;1691796;84;21100;-88
2021/09/04 08:57:41;;;;;;;10.60;7.25;;;;;;;19.43;100.00;100587.39;1642245;84;21018;-88
2021/09/04 09:00:10;;;;;;;8.35;7.05;;;;;;;19.45;100.00;100586.72;1691935;84;21061;-89
2021/09/04 09:02:36;;;;;;;9.15;7.37;;;;;;;19.53;100.00;100591.14;1691749;84;21169;-85
2021/09/04 09:05:07;;;;;;;8.28;6.65;;;;;;;19.49;100.00;100586.72;1691753;83;21064;-88
2021/09/04 09:07:45;;;;;;;11.18;7.75;;;;;;;19.42;100.00;100595.02;1691671;84;21100;-88
2021/09/04 09:10:26;;;;;;;9.25;7.30;;;;;;;19.21;100.00;100585.06;1658301;85;21674;-88
2021/09/04 09:12:53;;;;;;;;;;;;;;;18.98;100.00;100587.15;1656055;85;21017;-87
2021/09/04 09:15:23;;;;;;;10.53;8.00;;;;;;;18.78;100.00;100589.34;1671727;85;21111;-87
2021/09/04 09:18:15;;;;;;;9.25;7.15;;;;;;;18.70;100.00;100593.31;1654714;85;21490;-86
2021/09/04 09:21:05;;;;;;;11.53;7.70;;;;;;;18.61;100.00;100595.13;1742232;81;21082;-87
2021/09/04 09:23:30;;;;;;;8.75;7.28;;;;;;;18.52;100.00;100599.61;1700898;83;21086;-86
2021/09/04 09:26:10;;;;;;;9.88;7.55;;;;;;;18.38;100.00;100594.52;1678980;84;21065;-88
2021/09/04 09:28:38;;;;;;;10.82;7.55;;;;;;;18.22;100.00;100594.55;1635608;85;21096;-88
2021/09/04 09:31:05;;;;;;;10.68;7.10;;;;;;;18.05;100.00;100600.33;1713767;83;21066;-88
2021/09/04 09:33:33;;;;;;;10.30;7.90;;;;;;;17.93;100.00;100602.44;1657822;85;21081;-88
2021/09/04 09:36:04;;;;;;;12.18;8.18;;;;;;;17.92;100.00;100600.28;1728461;81;20993;-86
2021/09/04 09:38:33;;;;;;;11.60;8.80;;;;;;;18.01;100.00;100605.10;1682979;84;21045;-87
2021/09/04 09:41:03;;;;;;;14.00;8.00;;;;;;;18.05;100.00;100620.89;1732767;82;21820;-88
2021/09/04 09:43:35;;;;;;;10.30;7.87;;;;;;;17.93;100.00;100616.92;1685577;84;20998;-87
2021/09/04 09:46:05;;;;;;;10.95;8.65;;;;;;;17.76;100.00;100622.17;1743290;80;20999;-87
2021/09/04 09:48:36;;;;;;;9.98;8.18;;;;;;;17.56;100.00;100633.48;1685752;84;21050;-88
2021/09/04 09:51:07;;;;;;;9.90;7.85;;;;;;;17.35;100.00;100629.46;1732398;82;20991;-88
2021/09/04 09:53:34;;;;;;;13.40;7.95;;;;;;;17.22;100.00;100638.30;1685555;84;21912;-87
2021/09/04 09:56:02;;;;;;;10.50;7.10;;;;;;;17.12;100.00;100627.07;1732765;82;21949;-87
2021/09/04 09:58:29;;;;;;;11.93;7.33;;;;;;;17.02;100.00;100639.03;1685743;84;22034;-89
2021/09/04 10:00:58;;;;;;;9.53;7.20;;;;;;;16.93;100.00;100635.55;1712475;82;21402;-89
2021/09/04 10:03:28;;;;;;;9.53;7.50;;;;;;;16.90;100.00;100650.79;1685599;84;21033;-86
2021/09/04 10:05:57;;;;;;;13.22;7.70;;;;;;;16.90;100.00;100652.91;1743515;81;21809;-88
2021/09/04 10:08:25;;;;;;;10.80;7.35;;;;;;;17.02;100.00;100667.47;1709469;83;21698;-87
2021/09/04 10:10:55;;;;;;;11.03;7.22;;;;;;;17.14;100.00;100654.89;1757668;81;20995;-87
2021/09/04 10:13:22;;;;;;;9.23;6.78;;;;;;;17.06;100.00;100655.33;1707456;83;20947;-87
2021/09/04 10:16:13;;;;;;;7.53;5.92;;;;;;;16.93;100.00;100652.65;1743284;81;20952;-85
2021/09/04 10:18:42;;;;;;;8.30;6.70;;;;;;;16.74;100.00;100662.86;1707586;82;21070;-86
2021/09/04 10:21:12;;;;;;;9.35;7.42;;;;;;;16.52;100.00;100672.07;1732532;82;21379;-86
2021/09/04 10:23:47;;;;;;;9.05;7.05;;;;;;;16.37;100.00;100678.34;1707070;83;21082;-86
2021/09/04 10:26:31;;;;;;;10.55;7.15;;;;;;;16.24;100.00;100681.36;1685432;82;21003;-86
2021/09/04 10:29:06;;;;;;;10.05;6.90;;;;;;;16.01;100.00;100691.50;1732222;82;21113;-86
2021/09/04 10:32:01;;;;;;;12.13;7.05;;;;;;;15.68;100.00;100694.56;1742485;82;21869;-86
2021/09/04 10:34:37;;;;;;;8.93;6.60;;;;;;;15.42;100.00;100685.24;1685795;84;21513;-87
